Aviation Digital Data Service (ADDS)

Output produced by METARs form (1644 UTC 20 January 2019)
found at http://www.aviationweather.gov/metar/data/
 
KPAE 201523Z 2015/2112 35006KT P6SM BKN005 
     FM201800 33005KT P6SM SCT010 OVC150 
     FM202300 36006KT P6SM BKN200
       
KPBF 201458Z 2015/2112 36014KT P6SM SKC 
     FM201800 VRB06KT P6SM SKC
       
KPBG 201457Z 2015/2112 35012KT 1/2SM SN FZFG VV008 
     TEMPO 2015/2017 1/4SM +SN FZFG VV005 
     FM201800 34016G26KT 1SM -SN BLSN BR OVC006 
     FM211100 31014G25KT 1SM BLSN BR VCSH OVC015
       
KPBI 201602Z 2016/2112 28016KT P6SM FEW015 SCT020 BKN030 
     FM201700 29017KT P6SM FEW020 SCT025 
     FM210000 31011KT P6SM SKC
       
KPDK 201403Z 2014/2112 30018G28KT P6SM OVC020 
     FM201600 30017G27KT P6SM BKN030 
     FM201800 32017G27KT P6SM SCT035 
     FM202000 32017G27KT P6SM SKC 
     FM210000 32012G18KT P6SM SKC
       
KPDT 201120Z 2012/2112 VRB05KT P6SM -RA SCT040 OVC100 
     FM201600 14005KT 6SM -RA BR SCT015 OVC020 
     FM201700 32010KT 4SM -RA BR OVC015 
     FM202200 34005KT 5SM BR VCSH SCT010 OVC015 
     FM210200 01005KT 3SM BR OVC008
       
KPDX 201614Z 2016/2112 30004KT P6SM -RA VCFG FEW001 OVC035 
     FM201700 VRB03KT 5SM -RA BR SCT007 BKN015 OVC035 
     FM210000 31003KT P6SM SCT020 BKN050 OVC080 
     FM210500 VRB02KT 1SM BR BKN002 OVC100
       
KPGA 201127Z 2012/2112 VRB05KT P6SM SCT250
       
KPGD 201126Z 2012/2112 29015G25KT P6SM BKN025 OVC050 
     FM202100 30017G26KT P6SM SCT025 SCT250 
     FM210000 33010KT P6SM SCT250 
     FM211000 02007KT P6SM SKC
       
KPGV 201144Z 2012/2112 21014G24KT P6SM -SHRA SCT015 OVC025 
     TEMPO 2012/2013 BKN015 
     FM201300 25014G22KT P6SM VCSH BKN025 
     FM201500 26014G24KT P6SM VCSH BKN035 
     TEMPO 2015/2017 BKN025 
     FM202100 31017G27KT P6SM BKN090 AMD LTD TO CLD VIS AND WIND
       
KPHF 201133Z 2012/2112 20014G22KT P6SM -RA SCT012 BKN025 OVC035 
     FM201300 23014G22KT P6SM VCSH BKN025 OVC040 
     FM201500 29015G23KT P6SM BKN030 OVC050 
     FM201700 31020G30KT P6SM BKN050 
     FM202000 33022G33KT P6SM BKN070 
     FM210200 33020G30KT P6SM SCT150
       
KPHL 201609Z 2016/2118 29016G26KT P6SM SCT015 OVC045 
     TEMPO 2016/2018 BKN015 OVC035 
     FM201800 29018G28KT P6SM BKN030 
     FM202100 31020G32KT P6SM SCT050
       
KPHX 201502Z 2015/2118 09003KT P6SM FEW250 
     FM210000 27003KT P6SM SCT250 
     FM210500 10004KT P6SM BKN250 
     FM210900 11010KT P6SM SCT250 
     FM211700 25012G17KT P6SM SKC
       
KPIA 201206Z 2012/2112 35006KT P6SM BKN110 
     FM210000 03004KT P6SM SCT250 
     FM210800 07004KT P6SM SCT250
       
KPIB 201150Z 2012/2112 33014G21KT P6SM OVC015 
     FM201700 33012G17KT P6SM SKC 
     FM202300 33008KT P6SM SKC
       
KPIE 201126Z 2012/2112 30020G30KT P6SM BKN030 OVC050 
     TEMPO 2012/2016 BKN025 
     FM202100 31018G25KT P6SM SCT025 SCT250 
     FM210000 33012KT P6SM SCT250 
     FM211000 02010KT P6SM SKC
       
KPIH 201134Z 2012/2112 18012G22KT P6SM SCT040 OVC060 
     FM202100 21015G25KT P6SM VCSH SCT050 BKN060 
     FM210300 22012KT 6SM -RASN BR SCT020 BKN030 
     FM210800 20004KT 3SM -SN BR BKN008 OVC015
       
KPIR 201127Z 2012/2112 10011KT P6SM OVC015 
     FM202000 11011KT P6SM OVC005 
     FM210100 11015G22KT P6SM OVC015
       
KPIT 201514Z 2015/2118 32018G27KT 2SM -SN BLSN OVC015 
     TEMPO 2015/2017 4SM -SN BLSN 
     FM202000 32015G29KT P6SM BKN035 
     FM210700 32015G22KT P6SM BKN025
       
KPKB 201507Z 2015/2112 33013G20KT 6SM -SHSN OVC025 
     TEMPO 2015/2018 4SM -SHSN OVC025 
     FM201800 32015G21KT P6SM BKN025 
     FM210000 31010G19KT P6SM BKN025 
     FM210400 30009G18KT P6SM SCT035 
     FM211000 30009KT P6SM FEW250
       
KPMD 201440Z 2012/2112 24006KT P6SM BKN200 
     FM202200 26013KT P6SM BKN200 
     FM210300 25015G25KT P6SM BKN200 
     FM210600 26025G35KT P6SM BKN050 BKN200 
     FM210900 28030G40KT P6SM BKN150
       
KPNA 201547Z 2016/2112 VRB04KT 5SM BR SCT007 OVC015 
     TEMPO 2016/2018 2SM BR BKN007 
     FM201800 11006KT P6SM SCT025 OVC040 
     FM210600 13006KT P6SM VCSH OVC030 
     FM210900 13006KT 2SM -SN OVC014 AMD LTD TO CLD VIS AND WIND
       
KPNE 201609Z 2016/2112 30016G26KT P6SM SCT010 OVC050 
     TEMPO 2016/2018 BKN015 OVC035 
     FM201800 29018G28KT P6SM BKN030 
     FM202100 31020G32KT P6SM SCT050
       
KPNS 201123Z 2012/2112 33017G25KT P6SM FEW022 BKN030 
     FM201800 33015G20KT P6SM SCT025 
     FM210000 33007KT P6SM SKC
       
TAF AMD KPOB 201254Z 2012/2116 24012G18KT 9999 SCT017 510005 QNH2941INS 
     TEMPO 2012/2015 BKN017 
     BECMG 2014/2015 30015G25KT 9999 BKN017 510005 QNH2949INS 
     TEMPO 2016/2019 30015G30KT 
     BECMG 2018/2019 32015G30KT 9999 FEW070 510005 QNH2955INS 
     BECMG 2101/2102 32015G25KT 9999 SKC 510005 QNH3008INS 
     BECMG 2114/2115 33012G18KT 9999 SKC 510005 QNH3034INS TX15/2012Z
TNM07/2102Z
       
KPOU 201602Z 2016/2112 36010G20KT 3SM -FZRAPL BR OVC005 
     TEMPO 2016/2018 1/2SM FZRASN FZFG OVC004 
     FM201800 33010G14KT 5SM -SHSN BLSN OVC015 
     FM202200 33014G24KT 6SM BLSN BKN035 
     FM210000 22013G21KT P6SM SCT050
       
KPQI 201122Z 2012/2112 03007KT 1SM -SN OVC012 
     FM201330 04010KT 1/2SM SN OVC008 
     FM201700 04010G18KT 1/4SM +SN BLSN OVC006 
     FM202300 03016G26KT 1/4SM +SN BLSN OVC007 
     FM210000 02016G28KT 1/2SM SN BLSN OVC007 
     FM210500 36016G28KT 1SM -SN BLSN OVC010 
     FM211000 35015G25KT 2SM -SN BLSN OVC014
       
KPRB 201341Z 2014/2112 VRB03KT P6SM OVC200 
     FM201700 VRB03KT P6SM BKN035 
     FM202100 24007KT P6SM BKN025 
     FM210500 27015G25KT P6SM OVC025
       
KPRC 201127Z 2012/2112 20006KT P6SM SCT250 
     FM210600 19009KT P6SM BKN250 
     FM210900 19015G22KT P6SM FEW050 BKN250
       
KPSC 201607Z 2016/2112 35004KT 5SM -RA BR OVC008 
     FM201700 33005KT 4SM -RA BR SCT015 BKN025 OVC040 
     FM210000 22005KT 6SM BR VCSH SCT025 BKN040 OVC060 
     FM210300 VRB04KT 6SM BR OVC021
       
KPSF 201603Z 2016/2112 08008G18KT 3SM -SNPL OVC012 
     TEMPO 2016/2018 1SM -FZRA BR OVC007 
     FM201800 36010KT 5SM -SHSN BLSN OVC015 
     FM210000 31014G24KT P6SM OVC035
       
KPSM 201122Z 2011/2112 01012G20KT 1/2SM SNPL OVC004 
     FM201400 06014G24KT 1SM -SNPL OVC004 
     FM201600 05013G22KT 1SM -FZRAPL OVC003 
     FM202300 31014G34KT P6SM BKN025 OVC045 
     FM210300 30014G24KT P6SM BKN045 OVC080
       
KPSP 201137Z 2012/2112 VRB05KT P6SM BKN250 
     FM211000 04009KT P6SM SCT200
       
KPUB 201120Z 2012/2112 VRB04KT P6SM BKN250 
     FM202000 13007KT P6SM BKN250 
     FM210300 28006KT P6SM BKN250
       
KPUW 201536Z 2016/2112 10006KT P6SM OVC090 
     FM201700 09005KT 6SM -RA BR OVC050 
     FM201800 09004KT 4SM -RA BR OVC020 
     FM202100 08008KT 1SM -SN BR OVC009 
     TEMPO 2021/2023 1/2SM SN BKN006 
     FM210300 29004KT 3SM BR OVC008
       
KPVD 201454Z 2015/2112 02011KT 3SM +TSRA BR OVC006CB 
     FM201630 36013KT 1 1/2SM -FZRA OVC003 WS020/21040KT 
     FM202200 33013G20KT 2SM BR VCSH OVC003 
     FM210000 33013G24KT 6SM BR BKN008 
     FM210500 31014G25KT P6SM SCT035
       
KPVU 201137Z 2012/2112 VRB04KT P6SM SCT050 BKN200 
     FM210900 16010KT P6SM SCT020 BKN050
       
KPWM 201556Z 2016/2112 32015G25KT 1/2SM -SNPL FZFG OVC008 
     FM210000 33012G20KT 5SM -SHSN BKN025 OVC050 
     FM210600 31010KT P6SM BKN045 BKN080
       
KPWT 201132Z 2012/2112 00000KT P6SM OVC150 
     FM201800 VRB03KT P6SM BKN100 OVC150 
     FM210000 VRB03KT P6SM SCT100 BKN200 
     FM211100 00000KT 1SM BR OVC002